createdAt,value
2023-03-20T00:00:51.460Z,4.15
2023-03-20T00:04:15.694Z,4.73
2023-03-20T00:07:16.434Z,5.27
2023-03-20T00:10:40.517Z,4.77
2023-03-20T00:13:52.542Z,4.07
2023-03-20T00:17:19.492Z,5.63
2023-03-20T00:20:20.467Z,4.87
2023-03-20T00:23:35.490Z,4.40
2023-03-20T00:26:47.556Z,4.90
2023-03-20T00:29:59.560Z,5.17
2023-03-20T00:33:13.582Z,4.65
2023-03-20T00:36:26.493Z,4.53
2023-03-20T00:39:38.595Z,4.40
2023-03-20T00:43:03.527Z,4.43
2023-03-20T00:46:15.652Z,5.05
2023-03-20T00:49:42.597Z,5.10
2023-03-20T00:52:42.580Z,5.75
2023-03-20T00:55:55.666Z,4.97
2023-03-20T00:58:55.558Z,5.50
2023-03-20T01:02:09.791Z,5.27
2023-03-20T01:05:23.590Z,5.45
2023-03-20T01:08:47.696Z,5.93
2023-03-20T01:11:59.660Z,5.00
2023-03-20T01:15:12.622Z,5.00
2023-03-20T01:18:12.676Z,4.23
2023-03-20T01:21:38.714Z,4.95
2023-03-20T01:24:40.634Z,5.23
2023-03-20T01:28:02.776Z,5.70
2023-03-20T01:31:14.708Z,5.97
2023-03-20T01:34:50.704Z,5.73
2023-03-20T01:38:03.702Z,5.73
2023-03-20T01:41:29.797Z,5.93
2023-03-20T01:44:53.815Z,7.03
2023-03-20T01:48:17.835Z,5.97
2023-03-20T01:51:41.764Z,5.45
2023-03-20T01:55:07.805Z,6.20
2023-03-20T01:58:32.857Z,5.77
2023-03-20T02:01:56.784Z,5.95
2023-03-20T02:05:21.899Z,4.70
2023-03-20T02:08:38.794Z,5.70
2023-03-20T02:12:04.907Z,5.47
2023-03-20T02:15:28.854Z,4.90
2023-03-20T02:18:53.929Z,5.27
2023-03-20T02:22:21.858Z,4.70
2023-03-20T02:25:53.982Z,4.65
2023-03-20T02:29:35.905Z,5.10
2023-03-20T02:33:05.989Z,4.85
2023-03-20T02:36:35.923Z,4.83
2023-03-20T02:40:06.018Z,4.30
2023-03-20T02:43:19.933Z,4.45
2023-03-20T02:46:45.017Z,4.10
2023-03-20T02:50:14.998Z,3.80
2023-03-20T02:53:40.952Z,4.40
2023-03-20T02:57:06.976Z,4.10
2023-03-20T03:00:33.026Z,4.00
2023-03-20T03:03:49.976Z,3.80
2023-03-20T03:07:15.120Z,4.60
2023-03-20T03:10:27.048Z,4.73
2023-03-20T03:13:52.039Z,5.00
2023-03-20T03:17:18.072Z,4.73
2023-03-20T03:20:43.070Z,5.15
2023-03-20T03:24:09.996Z,4.60
2023-03-20T03:27:35.058Z,5.63
2023-03-20T03:31:02.121Z,4.73
2023-03-20T03:34:29.103Z,5.50
2023-03-20T03:37:56.166Z,7.30
2023-03-20T03:41:22.097Z,4.73
2023-03-20T03:44:35.143Z,5.87
2023-03-20T03:47:59.104Z,5.13
2023-03-20T03:51:13.050Z,5.10
2023-03-20T03:54:38.134Z,6.50
2023-03-20T03:58:04.194Z,5.85
2023-03-20T04:01:28.246Z,6.50
2023-03-20T04:04:52.279Z,5.65
2023-03-20T04:08:06.249Z,6.27
2023-03-20T04:11:18.241Z,5.73
2023-03-20T04:14:18.325Z,5.60
2023-03-20T04:17:31.277Z,6.75
2023-03-20T04:20:43.305Z,5.85
2023-03-20T04:24:09.275Z,6.10
2023-03-20T04:27:21.366Z,5.60
2023-03-20T04:30:34.307Z,6.87
2023-03-20T04:33:47.306Z,6.13
2023-03-20T04:37:09.296Z,5.77
2023-03-20T04:40:35.286Z,5.50
2023-03-20T04:43:59.305Z,6.00
2023-03-20T04:47:23.322Z,5.80
2023-03-20T04:50:38.327Z,5.30
2023-03-20T04:53:50.370Z,5.47
2023-03-20T04:57:19.366Z,5.85
2023-03-20T05:00:32.543Z,5.27
2023-03-20T05:03:45.440Z,5.30
2023-03-20T05:06:45.439Z,5.60
2023-03-20T05:09:59.408Z,4.50
2023-03-20T05:13:26.549Z,4.53
2023-03-20T05:16:39.497Z,5.00
2023-03-20T05:19:52.464Z,5.35
2023-03-20T05:23:09.392Z,5.30
2023-03-20T05:26:33.537Z,5.97
2023-03-20T05:30:00.554Z,5.20
2023-03-20T05:36:16.528Z,5.37
2023-03-20T05:39:28.458Z,6.60
2023-03-20T05:42:40.456Z,6.55
2023-03-20T05:46:07.566Z,7.00
2023-03-20T05:49:32.450Z,5.73
2023-03-20T05:52:44.543Z,5.87
2023-03-20T05:55:57.569Z,5.47
2023-03-20T05:59:10.604Z,5.70
2023-03-20T06:02:35.556Z,6.60
2023-03-20T06:06:00.570Z,5.80
2023-03-20T06:09:12.590Z,6.20
2023-03-20T06:12:24.646Z,6.23
2023-03-20T06:15:36.789Z,6.10
2023-03-20T06:19:09.614Z,5.90
2023-03-20T06:28:18.686Z,6.10
2023-03-20T06:31:42.642Z,6.30
2023-03-20T06:35:09.640Z,6.13
2023-03-20T06:41:34.232Z,5.63
2023-03-20T06:44:48.716Z,5.67
2023-03-20T06:48:01.726Z,5.80
2023-03-20T06:51:27.795Z,5.53
2023-03-20T06:54:40.790Z,5.83
2023-03-20T06:57:52.724Z,5.00
2023-03-20T07:01:04.759Z,5.73
2023-03-20T07:04:16.791Z,5.20
2023-03-20T07:07:42.744Z,5.75
2023-03-20T07:11:06.779Z,5.23
2023-03-20T07:14:19.917Z,5.70
2023-03-20T07:17:31.783Z,5.37
2023-03-20T07:20:44.767Z,5.60
2023-03-20T07:24:10.842Z,4.93
2023-03-20T07:27:22.812Z,4.95
2023-03-20T07:30:35.795Z,5.57
2023-03-20T07:33:48.819Z,4.83
2023-03-20T07:37:00.927Z,4.87
2023-03-20T07:40:27.854Z,4.25
2023-03-20T07:43:39.885Z,5.00
2023-03-20T07:47:04.900Z,4.75
2023-03-20T07:50:07.684Z,4.40
2023-03-20T07:53:17.982Z,4.73
2023-03-20T07:56:31.954Z,5.10
2023-03-20T07:59:45.957Z,4.90
2023-03-20T08:03:01.081Z,4.75
2023-03-20T08:06:14.884Z,4.10
2023-03-20T08:09:26.933Z,4.60
2023-03-20T08:12:52.937Z,4.67
2023-03-20T08:15:53.008Z,5.00
2023-03-20T08:19:07.997Z,5.03
2023-03-20T08:22:19.985Z,4.87
2023-03-20T08:25:32.021Z,4.65
2023-03-20T08:28:47.898Z,5.03
2023-03-20T08:32:10.070Z,5.43
2023-03-20T08:35:29.700Z,4.93
2023-03-20T08:38:38.015Z,4.73
2023-03-20T08:41:38.040Z,4.93
2023-03-20T08:45:11.214Z,5.87
2023-03-20T08:48:11.113Z,6.00
2023-03-20T08:51:23.069Z,5.70
2023-03-20T08:54:31.145Z,5.10
2023-03-20T08:57:43.162Z,5.47
2023-03-20T09:00:57.118Z,5.00
2023-03-20T09:04:09.088Z,5.33
2023-03-20T09:07:09.161Z,5.53
2023-03-20T09:10:34.209Z,7.17
2023-03-20T09:13:36.139Z,5.67
2023-03-20T09:17:01.169Z,6.00
2023-03-20T09:20:01.262Z,5.90
2023-03-20T09:23:14.233Z,5.73
2023-03-20T09:26:14.256Z,6.20
2023-03-20T09:29:28.155Z,6.20
2023-03-20T09:32:42.235Z,5.60
2023-03-20T09:35:55.226Z,6.07
2023-03-20T09:39:07.138Z,5.47
2023-03-20T09:42:33.274Z,5.80
2023-03-20T09:45:45.377Z,5.90
2023-03-20T09:49:19.254Z,5.70
2023-03-20T09:52:34.286Z,5.63
2023-03-20T09:55:59.322Z,5.10
2023-03-20T09:59:11.286Z,5.93
2023-03-20T10:02:37.265Z,5.20
2023-03-20T10:06:03.338Z,5.97
2023-03-20T10:09:03.352Z,5.40
2023-03-20T10:12:34.292Z,5.55
2023-03-20T10:15:46.377Z,5.47
2023-03-20T10:19:11.353Z,4.95
2023-03-20T10:22:25.469Z,5.00
2023-03-20T10:25:50.384Z,5.30
2023-03-20T10:29:04.406Z,5.65
2023-03-20T10:32:30.403Z,5.30
2023-03-20T10:35:43.458Z,4.60
2023-03-20T10:39:09.481Z,5.05
2023-03-20T10:42:21.449Z,4.40
2023-03-20T10:45:48.499Z,4.23
2023-03-20T10:49:03.468Z,5.17
2023-03-20T10:52:28.454Z,4.53
2023-03-20T10:55:42.414Z,4.70
2023-03-20T10:59:07.444Z,4.40
2023-03-20T11:02:19.564Z,4.90
2023-03-20T11:05:52.699Z,4.70
2023-03-20T11:09:00.514Z,4.97
2023-03-20T11:12:26.540Z,4.80
2023-03-20T11:15:44.551Z,4.87
2023-03-20T11:19:15.620Z,5.00
2023-03-20T11:22:31.575Z,4.23
2023-03-20T11:25:55.614Z,4.13
2023-03-20T11:29:09.618Z,4.27
2023-03-20T11:32:33.702Z,4.80
2023-03-20T11:35:45.543Z,4.30
2023-03-20T11:39:09.607Z,3.95
2023-03-20T11:42:21.600Z,4.63
2023-03-20T11:45:48.664Z,4.73
2023-03-20T11:49:01.596Z,4.97
2023-03-20T11:52:26.598Z,4.85
2023-03-20T11:55:51.576Z,4.50
2023-03-20T11:59:21.612Z,4.05
2023-03-20T12:02:38.760Z,4.10
2023-03-20T12:06:02.663Z,4.20
2023-03-20T12:09:17.687Z,3.83
2023-03-20T12:12:44.750Z,3.90
2023-03-20T12:15:56.792Z,4.37
2023-03-20T12:19:23.737Z,3.95
2023-03-20T12:22:36.778Z,4.00
2023-03-20T12:26:01.722Z,4.00
2023-03-20T12:29:14.779Z,4.43
2023-03-20T12:32:38.831Z,3.97
2023-03-20T12:35:52.793Z,3.70
2023-03-20T12:39:08.784Z,3.33
2023-03-20T12:42:23.807Z,3.33
2023-03-20T12:45:47.801Z,4.30
2023-03-20T12:49:05.851Z,3.60
2023-03-20T12:52:35.780Z,3.60
2023-03-20T12:55:49.879Z,3.37
2023-03-20T12:59:14.841Z,3.55
2023-03-20T13:02:27.944Z,2.90
2023-03-20T13:05:54.912Z,3.23
2023-03-20T13:09:19.911Z,2.83
2023-03-20T13:12:48.971Z,2.60
2023-03-20T13:16:04.873Z,2.50
2023-03-20T13:19:30.891Z,2.10
2023-03-20T13:22:43.982Z,2.70
2023-03-20T13:26:15.938Z,2.50
2023-03-20T13:29:29.952Z,2.70
2023-03-20T13:32:56.994Z,2.70
2023-03-20T13:36:10.311Z,2.47
2023-03-20T13:39:42.958Z,2.20
2023-03-20T13:42:59.044Z,2.20
2023-03-20T13:46:26.043Z,2.13
2023-03-20T13:49:38.040Z,2.40
2023-03-20T13:53:02.038Z,2.33
2023-03-20T13:56:15.047Z,1.97
2023-03-20T13:59:47.075Z,1.83
2023-03-20T14:03:10.059Z,2.20
2023-03-20T14:06:44.268Z,1.97
2023-03-20T14:09:57.032Z,2.50
2023-03-20T14:13:21.141Z,2.10
2023-03-20T14:16:33.168Z,1.90
2023-03-20T14:23:06.185Z,2.23
2023-03-20T14:26:29.094Z,1.77
2023-03-20T14:29:44.241Z,1.97
2023-03-20T14:33:16.146Z,2.15
2023-03-20T14:36:19.440Z,1.87
2023-03-20T14:39:50.213Z,2.03
2023-03-20T14:43:05.227Z,2.20
2023-03-20T14:46:30.191Z,1.67
2023-03-20T14:49:48.153Z,1.83
2023-03-20T14:53:16.245Z,1.80
2023-03-20T14:56:35.509Z,2.07
2023-03-20T15:00:02.243Z,1.70
2023-03-20T15:03:14.293Z,2.10
2023-03-20T15:06:45.393Z,2.10
2023-03-20T15:09:58.396Z,1.90
2023-03-20T15:13:22.427Z,1.73
2023-03-20T15:16:36.271Z,2.30
2023-03-20T15:20:03.313Z,2.65
2023-03-20T15:23:15.398Z,2.40
2023-03-20T15:26:39.348Z,2.03
2023-03-20T15:29:36.373Z,2.60
2023-03-20T15:33:03.390Z,2.80
2023-03-20T15:36:15.610Z,2.40
2023-03-20T15:39:39.516Z,2.80
2023-03-20T15:42:40.326Z,2.10
2023-03-20T15:46:19.606Z,2.87
2023-03-20T15:49:19.379Z,3.40
2023-03-20T15:52:46.371Z,2.97
2023-03-20T15:56:14.938Z,2.70
2023-03-20T15:59:10.423Z,2.53
2023-03-20T16:02:34.374Z,3.00
2023-03-20T16:06:00.455Z,3.00
2023-03-20T16:09:20.508Z,3.10
2023-03-20T16:12:33.474Z,2.33
2023-03-20T16:15:45.531Z,3.45
2023-03-20T16:19:08.527Z,2.50
2023-03-20T16:22:22.453Z,2.70
2023-03-20T16:25:46.507Z,2.87
2023-03-20T16:29:00.461Z,2.50
2023-03-20T16:32:24.463Z,3.27
2023-03-20T16:35:37.527Z,2.70
2023-03-20T16:39:04.547Z,2.70
2023-03-20T16:42:21.516Z,3.00
2023-03-20T16:45:47.882Z,2.90
2023-03-20T16:49:07.561Z,2.60
2023-03-20T16:52:31.549Z,2.93
2023-03-20T16:55:49.562Z,2.95
2023-03-20T16:59:13.578Z,3.10
2023-03-20T17:02:13.652Z,2.50
2023-03-20T17:05:37.592Z,3.30
2023-03-20T17:08:52.618Z,3.13
2023-03-20T17:12:15.570Z,2.83
2023-03-20T17:15:29.694Z,3.00
2023-03-20T17:18:53.665Z,3.27
2023-03-20T17:22:16.635Z,3.00
2023-03-20T17:25:40.640Z,2.93
2023-03-20T17:28:55.788Z,3.50
2023-03-20T17:32:21.702Z,3.40
2023-03-20T17:35:21.774Z,2.90
2023-03-20T17:38:42.709Z,4.00
2023-03-20T17:41:42.716Z,3.30
2023-03-20T17:44:55.678Z,3.70
2023-03-20T17:48:09.948Z,4.13
2023-03-20T17:51:34.724Z,3.60
2023-03-20T17:54:34.762Z,3.30
2023-03-20T17:57:58.816Z,3.70
2023-03-20T18:00:58.818Z,3.53
2023-03-20T18:04:25.816Z,3.50
2023-03-20T18:07:37.880Z,4.20
2023-03-20T18:10:49.836Z,3.90
2023-03-20T18:13:49.801Z,4.05
2023-03-20T18:17:13.840Z,4.20
2023-03-20T18:20:27.816Z,4.97
2023-03-20T18:23:50.928Z,4.10
2023-03-20T18:26:50.777Z,3.90
2023-03-20T18:30:02.861Z,4.20
2023-03-20T18:33:14.988Z,4.77
2023-03-20T18:36:41.012Z,4.80
2023-03-20T18:39:41.000Z,4.50
2023-03-20T18:42:52.879Z,5.10
2023-03-20T18:45:52.866Z,3.85
2023-03-20T18:49:17.918Z,4.30
2023-03-20T18:52:37.932Z,5.43
2023-03-20T18:55:52.920Z,4.77
2023-03-20T18:58:52.904Z,4.80
2023-03-20T19:02:06.193Z,4.50
2023-03-20T19:05:11.915Z,4.70
2023-03-20T19:08:40.019Z,5.20
2023-03-20T19:11:39.971Z,5.10
2023-03-20T19:14:52.030Z,4.80
2023-03-20T19:17:54.041Z,5.30
2023-03-20T19:21:18.035Z,6.20
2023-03-20T19:24:33.037Z,5.70
2023-03-20T19:27:46.343Z,5.40
2023-03-20T19:30:57.031Z,5.20
2023-03-20T19:34:29.546Z,6.07
2023-03-20T19:40:28.041Z,5.33
2023-03-20T19:43:51.758Z,5.73
2023-03-20T19:46:51.199Z,5.60
2023-03-20T19:49:51.089Z,6.15
2023-03-20T19:53:03.182Z,5.85
2023-03-20T19:56:17.302Z,6.13
2023-03-20T19:59:29.275Z,5.67
2023-03-20T20:02:30.234Z,6.60
2023-03-20T20:05:59.166Z,7.90
2023-03-20T20:08:59.239Z,6.10
2023-03-20T20:12:13.590Z,5.93
2023-03-20T20:15:32.085Z,6.97
2023-03-20T20:18:43.228Z,6.10
2023-03-20T20:24:56.288Z,5.90
2023-03-20T20:28:15.273Z,6.25
2023-03-20T20:31:42.312Z,6.05
2023-03-20T20:38:37.080Z,6.27
2023-03-20T20:41:09.293Z,7.63
2023-03-20T20:44:21.327Z,7.00
2023-03-20T20:47:35.377Z,7.95
2023-03-20T20:53:51.349Z,7.70
2023-03-20T20:57:03.383Z,7.83
2023-03-20T21:00:47.690Z,7.27
2023-03-20T21:10:03.391Z,7.33
2023-03-20T21:13:15.395Z,6.95
2023-03-20T21:16:43.418Z,8.70
2023-03-20T21:19:59.394Z,8.00
2023-03-20T21:23:23.410Z,8.10
2023-03-20T21:26:37.456Z,7.65
2023-03-20T21:30:03.505Z,8.30
2023-03-20T21:33:03.451Z,8.90
2023-03-20T21:36:27.964Z,8.45
2023-03-20T21:39:27.429Z,8.43
2023-03-20T21:42:53.688Z,8.27
2023-03-20T21:46:34.088Z,8.05
2023-03-20T21:59:38.352Z,8.37
2023-03-20T22:02:19.709Z,8.67
2023-03-20T22:09:30.730Z,8.45
2023-03-20T22:12:48.045Z,8.43
2023-03-20T22:15:54.500Z,10.17
2023-03-20T22:19:47.776Z,8.27
2023-03-20T22:35:38.577Z,8.95
2023-03-20T22:39:04.002Z,8.80
2023-03-20T22:41:59.164Z,8.30
2023-03-20T22:44:59.264Z,9.73
2023-03-20T22:47:48.744Z,9.30
2023-03-20T22:51:22.647Z,9.90
2023-03-20T22:54:19.758Z,9.65
2023-03-20T22:57:42.334Z,8.87
2023-03-20T23:00:44.761Z,8.80
2023-03-20T23:04:09.741Z,9.30
2023-03-20T23:07:09.724Z,11.07
2023-03-20T23:10:35.955Z,10.25
2023-03-20T23:13:35.772Z,9.30
2023-03-20T23:16:48.770Z,9.97
2023-03-20T23:20:11.234Z,9.07
2023-03-20T23:23:16.763Z,8.63
2023-03-20T23:26:29.833Z,8.80
2023-03-20T23:29:42.808Z,9.60
2023-03-20T23:32:42.830Z,8.73
2023-03-20T23:36:21.801Z,9.35
2023-03-20T23:39:08.854Z,9.07
2023-03-20T23:42:30.914Z,8.73
2023-03-20T23:45:40.250Z,9.17
2023-03-20T23:48:51.843Z,8.80
2023-03-20T23:51:54.868Z,9.35
2023-03-20T23:55:20.888Z,9.50
2023-03-20T23:58:21.010Z,8.90
